createdAt,value
2023-04-05T00:01:53.513Z,11.83
2023-04-05T00:04:23.733Z,10.20
2023-04-05T00:06:52.597Z,10.93
2023-04-05T00:09:20.701Z,9.23
2023-04-05T00:11:48.049Z,10.40
2023-04-05T00:14:15.034Z,8.03
2023-04-05T00:16:42.021Z,7.03
2023-04-05T00:19:09.023Z,9.27
2023-04-05T00:21:35.620Z,10.27
2023-04-05T00:24:02.730Z,6.93
2023-04-05T00:26:29.226Z,6.77
2023-04-05T00:28:57.357Z,5.10
2023-04-05T00:31:23.934Z,5.50
2023-04-05T00:33:50.577Z,6.00
2023-04-05T00:36:19.171Z,7.07
2023-04-05T00:38:47.318Z,5.97
2023-04-05T00:41:14.373Z,5.87
2023-04-05T00:43:41.343Z,5.30
2023-04-05T00:46:08.923Z,4.90
2023-04-05T00:48:36.304Z,5.97
2023-04-05T00:51:03.190Z,4.67
2023-04-05T00:53:30.328Z,4.87
2023-04-05T00:55:57.949Z,5.37
2023-04-05T00:58:24.668Z,5.70
2023-04-05T01:01:06.774Z,5.67
2023-04-05T01:03:36.978Z,4.97
2023-04-05T01:06:43.005Z,5.97
2023-04-05T01:09:17.812Z,4.20
2023-04-05T01:11:47.255Z,6.70
2023-04-05T01:14:14.251Z,4.63
2023-04-05T01:16:40.768Z,4.73
2023-04-05T01:19:09.946Z,7.43
2023-04-05T01:21:38.029Z,6.00
2023-04-05T01:24:25.929Z,6.20
2023-04-05T01:27:14.285Z,5.23
2023-04-05T01:30:04.307Z,5.30
2023-04-05T01:32:46.740Z,4.50
2023-04-05T01:35:22.101Z,5.43
2023-04-05T01:37:57.745Z,4.87
2023-04-05T01:40:24.633Z,4.43
2023-04-05T01:42:51.111Z,5.93
2023-04-05T01:45:17.557Z,5.50
2023-04-05T01:47:44.157Z,5.60
2023-04-05T01:50:10.938Z,5.17
2023-04-05T01:52:37.432Z,6.30
2023-04-05T01:55:04.201Z,6.97
2023-04-05T01:57:30.941Z,5.20
2023-04-05T01:59:57.413Z,9.43
2023-04-05T02:02:23.949Z,4.30
2023-04-05T02:04:50.477Z,7.87
2023-04-05T02:07:17.035Z,6.10
2023-04-05T02:09:43.510Z,7.83
2023-04-05T02:12:12.318Z,5.63
2023-04-05T02:14:38.802Z,5.97
2023-04-05T02:17:05.636Z,7.20
2023-04-05T02:19:37.171Z,9.60
2023-04-05T02:22:03.832Z,6.83
2023-04-05T02:24:30.434Z,6.77
2023-04-05T02:26:57.493Z,6.77
2023-04-05T02:29:24.410Z,9.27
2023-04-05T02:31:50.907Z,10.60
2023-04-05T02:34:17.431Z,8.63
2023-04-05T02:36:44.131Z,8.03
2023-04-05T02:39:10.728Z,6.57
2023-04-05T02:41:38.129Z,6.60
2023-04-05T02:44:04.756Z,8.10
2023-04-05T02:46:31.197Z,6.23
2023-04-05T02:48:58.958Z,7.40
2023-04-05T02:51:28.513Z,7.70
2023-04-05T02:53:55.461Z,6.40
2023-04-05T02:56:22.095Z,7.07
2023-04-05T02:58:49.305Z,7.33
2023-04-05T03:01:20.981Z,5.37
2023-04-05T03:03:47.489Z,7.10
2023-04-05T03:06:15.551Z,8.20
2023-04-05T03:08:48.988Z,8.93
2023-04-05T03:11:20.743Z,7.10
2023-04-05T03:13:51.432Z,6.93
2023-04-05T03:16:40.897Z,8.70
2023-04-05T03:19:18.711Z,10.77
2023-04-05T03:21:46.296Z,9.77
2023-04-05T03:24:35.417Z,9.33
2023-04-05T03:27:06.073Z,8.50
2023-04-05T03:29:39.196Z,10.20
2023-04-05T03:32:13.845Z,9.37
2023-04-05T03:34:46.791Z,9.97
2023-04-05T03:37:15.398Z,9.80
2023-04-05T03:39:48.359Z,10.13
2023-04-05T03:42:16.406Z,10.67
2023-04-05T03:44:44.259Z,9.47
2023-04-05T03:47:10.942Z,7.87
2023-04-05T03:49:39.620Z,10.40
2023-04-05T03:52:06.527Z,8.63
2023-04-05T03:54:33.028Z,8.77
2023-04-05T03:57:01.145Z,8.43
2023-04-05T03:59:28.771Z,10.10
2023-04-05T04:01:55.342Z,9.03
2023-04-05T04:04:23.930Z,8.00
2023-04-05T04:06:50.913Z,6.63
2023-04-05T04:09:22.919Z,6.67
2023-04-05T04:11:49.572Z,8.87
2023-04-05T04:14:19.791Z,8.93
2023-04-05T04:17:01.790Z,8.63
2023-04-05T04:19:57.785Z,8.43
2023-04-05T04:22:48.709Z,11.87
2023-04-05T04:25:30.872Z,9.30
2023-04-05T04:28:17.823Z,9.00
2023-04-05T04:31:04.910Z,9.07
2023-04-05T04:33:50.599Z,8.77
2023-04-05T04:36:42.796Z,11.57
2023-04-05T04:39:45.006Z,10.70
2023-04-05T04:42:39.083Z,9.53
2023-04-05T04:45:18.468Z,10.33
2023-04-05T04:48:06.496Z,8.13
2023-04-05T04:50:45.523Z,9.33
2023-04-05T04:53:13.611Z,10.87
2023-04-05T04:55:43.479Z,10.57
2023-04-05T04:58:11.943Z,9.63
2023-04-05T05:00:44.543Z,9.67
2023-04-05T05:03:11.913Z,12.20
2023-04-05T05:05:50.221Z,12.27
2023-04-05T05:08:21.896Z,12.13
2023-04-05T05:10:52.370Z,12.93
2023-04-05T05:13:19.009Z,15.63
2023-04-05T05:15:45.524Z,15.27
2023-04-05T05:18:12.466Z,13.03
2023-04-05T05:20:39.430Z,12.43
2023-04-05T05:23:06.369Z,15.00
2023-04-05T05:25:32.838Z,12.53
2023-04-05T05:27:59.920Z,10.67
2023-04-05T05:30:28.709Z,10.70
2023-04-05T05:32:55.347Z,9.93
2023-04-05T05:35:21.893Z,13.83
2023-04-05T05:37:50.730Z,12.57
2023-04-05T05:40:17.206Z,9.10
2023-04-05T05:42:43.643Z,6.83
2023-04-05T05:45:10.688Z,10.90
2023-04-05T05:47:37.223Z,8.70
2023-04-05T05:50:04.502Z,10.93
2023-04-05T05:52:31.414Z,10.57
2023-04-05T05:54:57.858Z,11.33
2023-04-05T05:57:24.566Z,13.10
2023-04-05T05:59:51.005Z,13.90
2023-04-05T06:02:17.463Z,10.20
2023-04-05T06:04:44.041Z,10.77
2023-04-05T06:07:11.079Z,10.60
2023-04-05T06:09:37.859Z,9.90
2023-04-05T06:12:04.392Z,10.10
2023-04-05T06:14:31.155Z,10.63
2023-04-05T06:16:58.125Z,11.57
2023-04-05T06:19:24.559Z,9.73
2023-04-05T06:21:51.464Z,10.03
2023-04-05T06:24:17.980Z,7.37
2023-04-05T06:26:44.454Z,8.27
2023-04-05T06:29:11.248Z,6.87
2023-04-05T06:31:37.821Z,10.43
2023-04-05T06:34:04.331Z,8.00
2023-04-05T06:36:34.604Z,8.33
2023-04-05T06:39:01.533Z,8.23
2023-04-05T06:41:28.123Z,6.43
2023-04-05T06:43:55.522Z,7.80
2023-04-05T06:46:22.779Z,7.90
2023-04-05T06:48:49.986Z,7.50
2023-04-05T06:51:16.856Z,8.20
2023-04-05T06:53:43.371Z,6.37
2023-04-05T06:56:09.941Z,5.83
2023-04-05T06:58:36.722Z,5.90
2023-04-05T07:01:03.998Z,9.57
2023-04-05T07:03:30.990Z,5.67
2023-04-05T07:05:59.338Z,6.87
2023-04-05T07:08:27.866Z,5.67
2023-04-05T07:10:55.321Z,8.20
2023-04-05T07:13:23.252Z,6.83
2023-04-05T07:15:50.044Z,5.77
2023-04-05T07:18:17.074Z,6.37
2023-04-05T07:20:46.924Z,5.80
2023-04-05T07:23:13.376Z,7.53
2023-04-05T07:25:41.104Z,6.10
2023-04-05T07:28:07.749Z,7.23
2023-04-05T07:30:34.224Z,6.50
2023-04-05T07:33:00.912Z,5.57
2023-04-05T07:35:28.468Z,5.77
2023-04-05T07:37:54.998Z,6.07
2023-04-05T07:40:25.836Z,5.67
2023-04-05T07:42:59.741Z,5.57
2023-04-05T07:45:27.206Z,8.53
2023-04-05T07:47:53.681Z,6.20
2023-04-05T07:50:20.617Z,6.43
2023-04-05T07:52:47.088Z,5.93
2023-04-05T07:55:13.641Z,5.80
2023-04-05T07:57:40.247Z,6.50
2023-04-05T08:00:12.221Z,5.40
2023-04-05T08:02:42.373Z,5.50
2023-04-05T08:05:09.072Z,8.00
2023-04-05T08:07:35.603Z,5.80
2023-04-05T08:10:02.457Z,5.63
2023-04-05T08:12:31.162Z,4.87
2023-04-05T08:14:57.843Z,5.57
2023-04-05T08:17:27.055Z,4.43
2023-04-05T08:19:54.394Z,4.50
2023-04-05T08:22:21.093Z,4.50
2023-04-05T08:24:47.628Z,4.40
2023-04-05T08:27:14.151Z,4.30
2023-04-05T08:29:40.770Z,4.57
2023-04-05T08:32:08.944Z,5.27
2023-04-05T08:34:35.581Z,5.73
2023-04-05T08:37:02.033Z,4.10
2023-04-05T08:39:28.592Z,7.83
2023-04-05T08:42:08.503Z,4.03
2023-04-05T08:44:36.984Z,5.40
2023-04-05T08:47:03.496Z,4.63
2023-04-05T08:49:29.949Z,4.47
2023-04-05T08:51:58.902Z,4.50
2023-04-05T08:54:25.545Z,4.57
2023-04-05T08:56:54.503Z,4.47
2023-04-05T08:59:22.158Z,4.63
2023-04-05T09:01:50.238Z,4.83
2023-04-05T09:04:20.745Z,3.53
2023-04-05T09:06:50.030Z,5.13
2023-04-05T09:09:18.624Z,4.93
2023-04-05T09:11:45.266Z,4.30
2023-04-05T09:14:12.264Z,3.77
2023-04-05T09:16:40.588Z,3.60
2023-04-05T09:19:08.315Z,3.97
2023-04-05T09:22:04.082Z,5.30
2023-04-05T09:24:41.685Z,4.37
2023-04-05T09:27:19.203Z,4.13
2023-04-05T09:29:53.397Z,3.73
2023-04-05T09:32:21.186Z,3.97
2023-04-05T09:34:48.146Z,3.93
2023-04-05T09:37:22.287Z,3.30
2023-04-05T09:39:51.551Z,4.57
2023-04-05T09:42:22.719Z,6.53
2023-04-05T09:44:51.209Z,3.30
2023-04-05T09:47:19.377Z,5.87
2023-04-05T09:49:47.753Z,5.83
2023-04-05T09:52:18.897Z,3.60
2023-04-05T09:54:45.474Z,2.70
2023-04-05T09:57:12.111Z,3.43
2023-04-05T09:59:41.751Z,2.50
2023-04-05T10:02:10.423Z,2.63
2023-04-05T10:04:44.885Z,3.83
2023-04-05T10:07:13.924Z,3.70
2023-04-05T10:09:42.135Z,3.10
2023-04-05T10:12:10.505Z,3.60
2023-04-05T10:14:37.856Z,4.07
2023-04-05T10:17:20.115Z,3.97
2023-04-05T10:20:17.112Z,3.70
2023-04-05T10:22:52.455Z,3.50
2023-04-05T10:25:46.899Z,3.70
2023-04-05T10:28:41.421Z,4.67
2023-04-05T10:31:07.821Z,4.23
2023-04-05T10:33:44.214Z,3.40
2023-04-05T10:36:37.948Z,4.03
2023-04-05T10:39:17.207Z,4.67
2023-04-05T10:41:54.216Z,3.83
2023-04-05T10:44:26.409Z,4.27
2023-04-05T10:46:55.618Z,5.27
2023-04-05T10:49:23.294Z,4.70
2023-04-05T10:51:50.805Z,4.23
2023-04-05T10:54:19.461Z,4.00
2023-04-05T10:56:46.715Z,4.30
2023-04-05T10:59:13.946Z,3.93
2023-04-05T11:01:42.088Z,4.10
2023-04-05T11:04:16.267Z,7.20
2023-04-05T11:06:43.749Z,4.10
2023-04-05T11:09:21.104Z,3.67
2023-04-05T11:11:49.429Z,3.50
2023-04-05T11:14:22.057Z,3.50
2023-04-05T11:16:53.369Z,3.60
2023-04-05T11:19:20.692Z,3.30
2023-04-05T11:21:47.507Z,5.20
2023-04-05T11:24:18.794Z,3.03
2023-04-05T11:26:48.087Z,3.70
2023-04-05T11:29:17.593Z,4.47
2023-04-05T11:32:01.142Z,3.40
2023-04-05T11:34:27.618Z,3.83
2023-04-05T11:36:54.282Z,7.43
2023-04-05T11:39:23.947Z,4.37
2023-04-05T11:42:03.790Z,4.43
2023-04-05T11:44:40.781Z,4.07
2023-04-05T11:47:07.590Z,3.37
2023-04-05T11:49:34.664Z,3.60
2023-04-05T11:52:14.054Z,3.90
2023-04-05T11:54:45.982Z,4.90
2023-04-05T11:57:20.065Z,3.53
2023-04-05T11:59:46.858Z,4.17
2023-04-05T12:02:13.286Z,4.20
2023-04-05T12:04:40.616Z,3.53
2023-04-05T12:07:18.176Z,3.57
2023-04-05T12:10:03.476Z,3.57
2023-04-05T12:12:38.304Z,4.23
2023-04-05T12:15:08.296Z,3.60
2023-04-05T12:17:46.990Z,3.90
2023-04-05T12:20:16.232Z,3.43
2023-04-05T12:22:44.205Z,3.80
2023-04-05T12:25:12.016Z,5.93
2023-04-05T12:27:39.347Z,4.67
2023-04-05T12:30:17.806Z,3.53
2023-04-05T12:32:46.631Z,3.77
2023-04-05T12:35:15.923Z,3.40
2023-04-05T12:37:42.492Z,3.80
2023-04-05T12:40:10.227Z,4.77
2023-04-05T12:42:40.789Z,4.43
2023-04-05T12:45:12.937Z,4.30
2023-04-05T12:47:50.840Z,4.77
2023-04-05T12:50:18.695Z,3.80
2023-04-05T12:52:59.558Z,3.70
2023-04-05T12:55:29.029Z,4.07
2023-04-05T12:57:59.537Z,3.27
2023-04-05T13:00:28.093Z,4.17
2023-04-05T13:02:56.158Z,3.67
2023-04-05T13:05:25.164Z,4.10
2023-04-05T13:07:51.935Z,3.60
2023-04-05T13:10:20.561Z,3.30
2023-04-05T13:12:47.495Z,4.30
2023-04-05T13:15:15.340Z,3.97
2023-04-05T13:17:42.812Z,4.33
2023-04-05T13:20:10.340Z,4.20
2023-04-05T13:22:37.177Z,4.13
2023-04-05T13:25:04.543Z,4.97
2023-04-05T13:27:31.230Z,4.10
2023-04-05T13:29:57.800Z,4.53
2023-04-05T13:32:24.438Z,3.70
2023-04-05T13:34:51.028Z,4.33
2023-04-05T13:37:17.487Z,7.07
2023-04-05T13:39:44.114Z,4.03
2023-04-05T13:42:10.810Z,4.17
2023-04-05T13:44:38.245Z,4.40
2023-04-05T13:47:04.800Z,4.80
2023-04-05T13:49:31.245Z,5.10
2023-04-05T13:51:57.666Z,5.93
2023-04-05T13:54:24.118Z,6.53
2023-04-05T13:56:50.582Z,5.43
2023-04-05T13:59:17.316Z,4.93
2023-04-05T14:01:43.881Z,7.23
2023-04-05T14:04:10.983Z,7.23
2023-04-05T14:06:37.748Z,5.37
2023-04-05T14:09:04.827Z,5.17
2023-04-05T14:11:35.818Z,8.17
2023-04-05T14:14:02.896Z,5.40
2023-04-05T14:16:29.976Z,6.13
2023-04-05T14:18:56.739Z,6.80
2023-04-05T14:21:24.534Z,5.27
2023-04-05T14:23:54.251Z,5.10
2023-04-05T14:26:20.702Z,5.40
2023-04-05T14:29:19.111Z,5.30
2023-04-05T14:31:45.686Z,6.53
2023-04-05T14:34:12.267Z,5.77
2023-04-05T14:36:38.718Z,7.40
2023-04-05T14:39:05.325Z,6.63
2023-04-05T14:41:32.228Z,5.27
2023-04-05T14:43:59.166Z,6.17
2023-04-05T14:46:25.746Z,6.00
2023-04-05T14:48:52.283Z,5.97
2023-04-05T14:51:18.820Z,5.07
2023-04-05T14:53:45.284Z,5.03
2023-04-05T14:56:12.120Z,5.40
2023-04-05T14:58:38.534Z,5.87
2023-04-05T15:01:05.245Z,5.87
2023-04-05T15:03:31.877Z,5.67
2023-04-05T15:05:58.353Z,6.47
2023-04-05T15:08:24.827Z,4.33
2023-04-05T15:10:51.280Z,3.90
2023-04-05T15:13:19.731Z,4.83
2023-04-05T15:15:46.232Z,3.83
2023-04-05T15:18:12.835Z,5.07
2023-04-05T15:20:39.267Z,4.07
2023-04-05T15:23:05.743Z,3.70
2023-04-05T15:25:32.175Z,4.07
2023-04-05T15:28:02.297Z,4.23
2023-04-05T15:30:29.890Z,3.80
2023-04-05T15:32:56.368Z,3.90
2023-04-05T15:35:23.000Z,3.73
2023-04-05T15:37:49.486Z,3.33
2023-04-05T15:40:16.367Z,3.40
2023-04-05T15:42:42.808Z,4.23
2023-04-05T15:45:09.818Z,3.70
2023-04-05T15:47:36.444Z,3.80
2023-04-05T15:50:06.260Z,4.20
2023-04-05T15:52:33.992Z,5.60
2023-04-05T15:55:00.650Z,3.60
2023-04-05T15:57:27.116Z,4.53
2023-04-05T15:59:54.413Z,4.33
2023-04-05T16:02:20.886Z,4.20
2023-04-05T16:04:47.445Z,5.50
2023-04-05T16:07:16.727Z,4.87
2023-04-05T16:09:43.302Z,5.67
2023-04-05T16:12:09.766Z,4.53
2023-04-05T16:14:36.276Z,4.57
2023-04-05T16:17:02.775Z,5.13
2023-04-05T16:19:29.288Z,4.43
2023-04-05T16:21:55.831Z,6.53
2023-04-05T16:24:22.469Z,5.83
2023-04-05T16:26:48.850Z,4.33
2023-04-05T16:29:15.254Z,4.63
2023-04-05T16:31:46.936Z,4.63
2023-04-05T16:34:13.970Z,4.43
2023-04-05T16:36:41.256Z,5.33
2023-04-05T16:39:07.750Z,5.67
2023-04-05T16:41:36.138Z,6.20
2023-04-05T16:44:03.039Z,5.50
2023-04-05T16:46:32.028Z,4.80
2023-04-05T16:49:00.348Z,4.47
2023-04-05T16:51:28.004Z,5.63
2023-04-05T16:53:55.636Z,5.00
2023-04-05T16:56:23.355Z,4.50
2023-04-05T16:58:49.831Z,4.60
2023-04-05T17:01:16.308Z,5.47
2023-04-05T17:03:46.842Z,4.93
2023-04-05T17:06:14.328Z,4.87
2023-04-05T17:08:41.005Z,5.80
2023-04-05T17:11:07.668Z,8.43
2023-04-05T17:13:34.162Z,6.87
2023-04-05T17:16:00.826Z,5.53
2023-04-05T17:18:27.615Z,5.90
2023-04-05T17:20:54.066Z,6.27
2023-04-05T17:23:20.572Z,6.53
2023-04-05T17:25:47.010Z,5.83
2023-04-05T17:28:13.463Z,5.57
2023-04-05T17:30:39.986Z,8.13
2023-04-05T17:33:06.614Z,6.80
2023-04-05T17:35:33.151Z,8.63
2023-04-05T17:37:59.635Z,6.73
2023-04-05T17:40:26.078Z,6.40
2023-04-05T17:42:52.538Z,7.40
2023-04-05T17:45:18.950Z,6.77
2023-04-05T17:47:45.507Z,8.57
2023-04-05T17:50:12.031Z,7.60
2023-04-05T17:52:38.549Z,7.13
2023-04-05T17:55:05.731Z,7.00
2023-04-05T17:57:32.246Z,6.20
2023-04-05T17:59:59.329Z,4.90
2023-04-05T18:02:31.160Z,5.03
2023-04-05T18:04:59.438Z,6.20
2023-04-05T18:07:27.355Z,5.07
2023-04-05T18:09:53.884Z,6.33
2023-04-05T18:12:22.014Z,7.13
2023-04-05T18:14:48.652Z,6.93
2023-04-05T18:17:15.308Z,7.43
2023-04-05T18:19:42.196Z,8.63
2023-04-05T18:22:08.632Z,6.97
2023-04-05T18:24:35.415Z,8.27
2023-04-05T18:27:02.128Z,6.93
2023-04-05T18:29:30.873Z,6.93
2023-04-05T18:32:12.232Z,7.87
2023-04-05T18:34:38.918Z,5.73
2023-04-05T18:37:05.674Z,7.73
2023-04-05T18:39:32.406Z,6.70
2023-04-05T18:41:59.070Z,5.73
2023-04-05T18:44:26.038Z,5.77
2023-04-05T18:46:53.653Z,6.37
2023-04-05T18:49:21.914Z,8.97
2023-04-05T18:51:48.852Z,10.33
2023-04-05T18:54:18.176Z,9.97
2023-04-05T18:56:45.424Z,13.90
2023-04-05T18:59:12.349Z,13.97
2023-04-05T19:01:38.929Z,13.30
2023-04-05T19:04:06.004Z,12.70
2023-04-05T19:06:34.983Z,11.87
2023-04-05T19:09:01.919Z,9.93
2023-04-05T19:11:28.516Z,10.83
2023-04-05T19:13:55.320Z,8.77
2023-04-05T19:16:21.762Z,8.13
2023-04-05T19:18:48.296Z,9.33
2023-04-05T19:21:15.113Z,9.60
2023-04-05T19:23:41.983Z,5.77
2023-04-05T19:26:08.395Z,4.43
2023-04-05T19:28:34.850Z,5.67
2023-04-05T19:31:01.320Z,4.93
2023-04-05T19:33:30.251Z,9.43
2023-04-05T19:35:57.804Z,12.73
2023-04-05T19:38:24.321Z,14.20
2023-04-05T19:40:50.937Z,14.10
2023-04-05T19:43:17.480Z,15.90
2023-04-05T19:45:44.255Z,11.53
2023-04-05T19:48:37.588Z,7.77
2023-04-05T19:51:06.836Z,6.43
2023-04-05T19:53:39.336Z,9.03
2023-04-05T19:56:12.541Z,9.50
2023-04-05T19:58:39.117Z,13.00
2023-04-05T20:01:06.760Z,11.77
2023-04-05T20:03:36.159Z,11.13
2023-04-05T20:06:08.014Z,8.30
2023-04-05T20:08:37.303Z,9.43
2023-04-05T20:11:19.313Z,5.60
2023-04-05T20:13:52.244Z,7.60
2023-04-05T20:16:25.548Z,11.30
2023-04-05T20:18:52.808Z,16.77
2023-04-05T20:21:19.706Z,15.23
2023-04-05T20:23:47.273Z,13.70
2023-04-05T20:26:16.002Z,9.60
2023-04-05T20:28:53.248Z,6.47
2023-04-05T20:31:25.880Z,6.27
2023-04-05T20:34:09.465Z,5.37
2023-04-05T20:36:37.971Z,6.33
2023-04-05T20:39:06.485Z,5.00
2023-04-05T20:41:33.275Z,5.73
2023-04-05T20:44:00.440Z,6.47
2023-04-05T20:46:27.857Z,6.23
2023-04-05T20:48:57.952Z,8.60
2023-04-05T20:51:24.717Z,6.73
2023-04-05T20:53:51.250Z,6.80
2023-04-05T20:56:18.032Z,7.27
2023-04-05T20:58:44.600Z,6.83
2023-04-05T21:01:11.521Z,5.07
2023-04-05T21:03:40.530Z,7.67
2023-04-05T21:06:09.018Z,5.23
2023-04-05T21:08:37.143Z,4.57
2023-04-05T21:11:04.915Z,5.63
2023-04-05T21:13:31.578Z,6.90
2023-04-05T21:15:58.333Z,5.27
2023-04-05T21:18:25.573Z,6.27
2023-04-05T21:20:53.548Z,9.20
2023-04-05T21:23:22.451Z,7.13
2023-04-05T21:25:49.723Z,6.43
2023-04-05T21:28:16.533Z,8.20
2023-04-05T21:30:43.632Z,10.03
2023-04-05T21:33:10.609Z,8.70
2023-04-05T21:35:37.212Z,8.37
2023-04-05T21:38:03.809Z,8.83
2023-04-05T21:40:30.670Z,7.37
2023-04-05T21:42:57.596Z,4.93
2023-04-05T21:45:24.427Z,5.37
2023-04-05T21:47:51.180Z,7.30
2023-04-05T21:50:17.817Z,6.60
2023-04-05T21:52:45.346Z,9.33
2023-04-05T21:55:12.501Z,8.43
2023-04-05T21:57:39.036Z,11.10
2023-04-05T22:00:10.841Z,10.23
2023-04-05T22:02:41.223Z,11.07
2023-04-05T22:05:08.501Z,12.43
2023-04-05T22:07:35.871Z,9.87
2023-04-05T22:10:03.245Z,11.33
2023-04-05T22:12:29.796Z,8.70
2023-04-05T22:14:56.516Z,7.47
2023-04-05T22:17:23.337Z,6.20
2023-04-05T22:19:49.888Z,6.40
2023-04-05T22:22:17.333Z,11.13
2023-04-05T22:24:44.162Z,9.80
2023-04-05T22:27:11.862Z,10.30
2023-04-05T22:29:38.654Z,8.13
2023-04-05T22:32:05.672Z,9.33
2023-04-05T22:34:32.165Z,8.87
2023-04-05T22:36:58.695Z,9.77
2023-04-05T22:39:25.359Z,10.30
2023-04-05T22:41:51.791Z,11.40
2023-04-05T22:44:18.281Z,11.47
2023-04-05T22:46:44.766Z,11.13
2023-04-05T22:49:11.205Z,12.43
2023-04-05T22:51:37.654Z,7.90
2023-04-05T22:54:04.202Z,7.47
2023-04-05T22:56:31.520Z,8.40
2023-04-05T22:58:58.137Z,8.47
2023-04-05T23:01:24.794Z,9.47
2023-04-05T23:03:51.494Z,8.30
2023-04-05T23:06:17.959Z,10.13
2023-04-05T23:08:44.414Z,9.20
2023-04-05T23:11:10.935Z,11.07
2023-04-05T23:13:37.379Z,7.33
2023-04-05T23:16:04.325Z,8.23
2023-04-05T23:18:30.985Z,10.93
2023-04-05T23:20:57.495Z,7.93
2023-04-05T23:23:24.022Z,7.70
2023-04-05T23:25:51.099Z,8.60
2023-04-05T23:28:17.587Z,7.03
2023-04-05T23:30:44.053Z,7.53
2023-04-05T23:33:12.979Z,8.33
2023-04-05T23:35:40.553Z,8.43
2023-04-05T23:38:07.344Z,5.60
2023-04-05T23:40:34.010Z,5.53
2023-04-05T23:43:00.690Z,6.23
2023-04-05T23:45:27.524Z,5.73
2023-04-05T23:47:55.484Z,5.53
2023-04-05T23:50:22.360Z,6.20
2023-04-05T23:52:49.147Z,7.90
2023-04-05T23:55:15.952Z,7.30
2023-04-05T23:57:42.407Z,5.87
